LTCO

Ağrı Airport

Turkey
TAF LTCO 171340Z 1715/1724 VRB02KT CAVOK
Issued Valid From Valid To
Oct-17 @ 13:40 UTC
(7 hours ago)
Oct-17 @ 15:00 UTC
(5 hours ago)
Oct-18 @ 00:00 UTC
(in 4 hours)
Oct-17 @ 15:00 to Oct-18 @ 00:00
TAF LTCO 171340Z 1715/1724 VRB02KT CAVOK
Wind Visibility Clouds Conditions
Variable at 2 knots 10,000+ meters
  • No significant clouds
TAF LTCO 171340Z 1715/1724 VRB02KT CAVOK
Issued Oct-17 @ 13:40 UTC
(7 hours ago)
Valid From Oct-17 @ 15:00 UTC
(5 hours ago)
Valid To Oct-18 @ 00:00 UTC
(in 4 hours)
Oct-17 @ 15:00 - Oct-18 @ 00:00
Wind Visibility
Variable at 2 knots 10,000+ meters
Clouds
  • No significant clouds
Conditions